createdAt,value
2023-05-04T00:02:21.357Z,99265.25
2023-05-04T00:05:23.536Z,99271.34
2023-05-04T00:08:12.570Z,99273.63
2023-05-04T00:11:06.517Z,99274.50
2023-05-04T00:13:54.167Z,99270.75
2023-05-04T00:16:27.148Z,99273.88
2023-05-04T00:18:54.401Z,99270.41
2023-05-04T00:21:21.323Z,99261.81
2023-05-04T00:23:48.251Z,99262.09
2023-05-04T00:26:15.195Z,99266.91
2023-05-04T00:28:42.345Z,99275.25
2023-05-04T00:31:09.310Z,99265.28
2023-05-04T00:33:36.442Z,99270.34
2023-05-04T00:36:04.575Z,99261.03
2023-05-04T00:38:31.538Z,99270.06
2023-05-04T00:40:59.271Z,99269.81
2023-05-04T00:43:26.974Z,99261.25
2023-05-04T00:45:53.959Z,99259.53
2023-05-04T00:48:21.047Z,99245.78
2023-05-04T00:50:48.000Z,99266.63
2023-05-04T00:53:14.937Z,99252.53
2023-05-04T00:55:41.870Z,99258.47
2023-05-04T00:58:12.261Z,99256.94
2023-05-04T01:00:39.255Z,99260.03
2023-05-04T01:03:06.335Z,99247.25
2023-05-04T01:06:04.409Z,99254.16
2023-05-04T01:08:54.002Z,99253.06
2023-05-04T01:12:01.459Z,99253.91
2023-05-04T01:14:52.237Z,99255.88
2023-05-04T01:17:35.617Z,99215.06
2023-05-04T01:20:02.722Z,99251.66
2023-05-04T01:22:30.131Z,99246.72
2023-05-04T01:24:57.426Z,99257.28
2023-05-04T01:27:36.619Z,99259.13
2023-05-04T01:30:15.202Z,99257.72
2023-05-04T01:32:43.226Z,99245.75
2023-05-04T01:35:12.379Z,99239.13
2023-05-04T01:37:40.026Z,99222.94
2023-05-04T01:40:07.544Z,99235.19
2023-05-04T01:42:34.511Z,99237.28
2023-05-04T01:45:02.120Z,99208.28
2023-05-04T01:47:29.664Z,99233.66
2023-05-04T01:49:56.568Z,99231.22
2023-05-04T01:52:23.512Z,99227.88
2023-05-04T01:54:50.568Z,99192.00
2023-05-04T01:57:17.686Z,99239.69
2023-05-04T01:59:44.614Z,99235.47
2023-05-04T02:02:11.663Z,99223.25
2023-05-04T02:04:38.617Z,99222.50
2023-05-04T02:07:05.605Z,99228.59
2023-05-04T02:09:32.677Z,99219.84
2023-05-04T02:11:59.859Z,99163.03
2023-05-04T02:14:26.816Z,99224.34
2023-05-04T02:16:53.824Z,99214.78
2023-05-04T02:19:20.758Z,99213.38
2023-05-04T02:21:48.322Z,99223.22
2023-05-04T02:24:15.295Z,99229.41
2023-05-04T02:26:42.235Z,99220.00
2023-05-04T02:29:09.138Z,99221.09
2023-05-04T02:31:36.179Z,99228.25
2023-05-04T02:34:03.482Z,99223.34
2023-05-04T02:36:30.510Z,99234.31
2023-05-04T02:38:59.296Z,99217.97
2023-05-04T02:41:27.113Z,99220.94
2023-05-04T02:43:54.062Z,99224.56
2023-05-04T02:46:21.097Z,99225.53
2023-05-04T02:48:48.028Z,99237.69
2023-05-04T02:51:14.946Z,99229.66
2023-05-04T02:53:41.898Z,99224.31
2023-05-04T02:56:08.800Z,99229.06
2023-05-04T02:58:35.760Z,99229.91
2023-05-04T03:01:02.737Z,99236.38
2023-05-04T03:03:29.729Z,99235.66
2023-05-04T03:05:56.650Z,99241.00
2023-05-04T03:08:23.880Z,99230.59
2023-05-04T03:10:50.780Z,99224.00
2023-05-04T03:13:17.771Z,99233.28
2023-05-04T03:15:44.716Z,99233.81
2023-05-04T03:18:11.862Z,99234.53
2023-05-04T03:20:38.821Z,99234.38
2023-05-04T03:23:06.299Z,99233.38
2023-05-04T03:25:33.192Z,99228.13
2023-05-04T03:28:00.104Z,99228.00
2023-05-04T03:30:27.191Z,99227.00
2023-05-04T03:32:54.226Z,99232.31
2023-05-04T03:35:24.605Z,99226.28
2023-05-04T03:37:52.117Z,99234.03
2023-05-04T03:40:24.440Z,99245.88
2023-05-04T03:42:52.752Z,99235.47
2023-05-04T03:45:19.929Z,99230.69
2023-05-04T03:47:46.873Z,99232.16
2023-05-04T03:50:13.904Z,99232.00
2023-05-04T03:52:40.775Z,99231.16
2023-05-04T03:55:08.185Z,99212.41
2023-05-04T03:57:35.110Z,99242.84
2023-05-04T04:00:02.373Z,99242.44
2023-05-04T04:02:29.491Z,99209.59
2023-05-04T04:04:56.551Z,99238.63
2023-05-04T04:07:23.433Z,99241.72
2023-05-04T04:09:50.501Z,99238.38
2023-05-04T04:12:18.699Z,99244.28
2023-05-04T04:14:45.743Z,99242.59
2023-05-04T04:17:12.650Z,99237.84
2023-05-04T04:19:39.598Z,99228.69
2023-05-04T04:22:06.498Z,99234.34
2023-05-04T04:24:33.806Z,99208.59
2023-05-04T04:27:00.722Z,99235.06
2023-05-04T04:29:27.668Z,99248.69
2023-05-04T04:31:54.632Z,99249.69
2023-05-04T04:34:22.558Z,99240.13
2023-05-04T04:36:50.117Z,99248.25
2023-05-04T04:39:17.298Z,99231.53
2023-05-04T04:41:44.393Z,99241.50
2023-05-04T04:44:11.887Z,99249.44
2023-05-04T04:46:39.179Z,99191.63
2023-05-04T04:49:06.282Z,99258.06
2023-05-04T04:51:33.516Z,99242.53
2023-05-04T04:54:00.573Z,99245.13
2023-05-04T04:56:27.456Z,99255.00
2023-05-04T04:58:54.388Z,99245.53
2023-05-04T05:01:21.297Z,99240.34
2023-05-04T05:03:49.355Z,99242.97
2023-05-04T05:06:16.462Z,99242.72
2023-05-04T05:08:44.221Z,99240.56
2023-05-04T05:11:11.674Z,99241.69
2023-05-04T05:13:38.745Z,99238.63
2023-05-04T05:16:06.128Z,99243.03
2023-05-04T05:18:33.364Z,99238.63
2023-05-04T05:21:01.040Z,99239.97
2023-05-04T05:23:27.982Z,99239.59
2023-05-04T05:25:56.019Z,99246.47
2023-05-04T05:28:23.247Z,99244.38
2023-05-04T05:30:52.373Z,99242.13
2023-05-04T05:33:19.501Z,99244.69
2023-05-04T05:35:46.386Z,99248.09
2023-05-04T05:38:13.391Z,99249.50
2023-05-04T05:40:40.331Z,99132.66
2023-05-04T05:43:07.353Z,99247.97
2023-05-04T05:45:34.304Z,99245.63
2023-05-04T05:48:01.254Z,99244.84
2023-05-04T05:50:28.221Z,99228.28
2023-05-04T05:52:55.156Z,99248.19
2023-05-04T05:55:22.042Z,99243.16
2023-05-04T05:57:48.974Z,99246.00
2023-05-04T06:00:16.622Z,99241.38
2023-05-04T06:02:43.661Z,99240.22
2023-05-04T06:05:11.064Z,99236.09
2023-05-04T06:07:38.011Z,99240.66
2023-05-04T06:10:05.849Z,99250.41
2023-05-04T06:12:32.951Z,99241.66
2023-05-04T06:14:59.970Z,99253.38
2023-05-04T06:17:26.991Z,99249.56
2023-05-04T06:19:53.930Z,99247.97
2023-05-04T06:22:20.958Z,99252.34
2023-05-04T06:24:47.965Z,99241.03
2023-05-04T06:27:14.924Z,99247.94
2023-05-04T06:29:41.894Z,99246.66
2023-05-04T06:32:10.159Z,99246.09
2023-05-04T06:34:37.255Z,99244.84
2023-05-04T06:37:04.231Z,99224.25
2023-05-04T06:39:31.687Z,99245.22
2023-05-04T06:41:58.608Z,99245.06
2023-05-04T06:44:25.676Z,99244.78
2023-05-04T06:46:52.851Z,99253.84
2023-05-04T06:49:19.983Z,99235.34
2023-05-04T06:51:47.098Z,99239.34
2023-05-04T06:54:14.028Z,99225.31
2023-05-04T06:56:41.169Z,99238.13
2023-05-04T06:59:10.114Z,99232.69
2023-05-04T07:01:37.828Z,99234.00
2023-05-04T07:04:05.285Z,99235.44
2023-05-04T07:06:32.694Z,99234.19
2023-05-04T07:09:00.056Z,99217.44
2023-05-04T07:11:28.197Z,99235.22
2023-05-04T07:13:55.371Z,99233.47
2023-05-04T07:16:22.509Z,99238.00
2023-05-04T07:18:49.921Z,99229.13
2023-05-04T07:21:27.838Z,99232.44
2023-05-04T07:23:56.365Z,99230.88
2023-05-04T07:26:23.518Z,99234.91
2023-05-04T07:28:50.723Z,99231.44
2023-05-04T07:31:17.733Z,99235.00
2023-05-04T07:33:44.627Z,99240.25
2023-05-04T07:36:11.561Z,99248.09
2023-05-04T07:38:38.458Z,99235.41
2023-05-04T07:41:05.526Z,99230.53
2023-05-04T07:43:32.411Z,99227.63
2023-05-04T07:45:59.424Z,99239.97
2023-05-04T07:48:26.845Z,99240.09
2023-05-04T07:50:54.224Z,99243.00
2023-05-04T07:53:21.690Z,99237.56
2023-05-04T07:55:48.779Z,99237.47
2023-05-04T07:58:16.891Z,99228.03
2023-05-04T08:00:44.064Z,99241.03
2023-05-04T08:03:11.116Z,99246.53
2023-05-04T08:05:38.165Z,99245.50
2023-05-04T08:08:05.302Z,99234.34
2023-05-04T08:10:35.869Z,99240.72
2023-05-04T08:13:02.873Z,99233.84
2023-05-04T08:15:29.833Z,99234.38
2023-05-04T08:17:56.860Z,99235.91
2023-05-04T08:20:24.130Z,99232.59
2023-05-04T08:22:51.397Z,99228.88
2023-05-04T08:25:18.305Z,99210.41
2023-05-04T08:27:46.058Z,99237.44
2023-05-04T08:30:13.415Z,99244.28
2023-05-04T08:32:40.628Z,99229.97
2023-05-04T08:35:08.159Z,99235.13
2023-05-04T08:37:35.298Z,99239.78
2023-05-04T08:40:02.423Z,99235.75
2023-05-04T08:42:33.814Z,99234.91
2023-05-04T08:45:01.486Z,99249.34
2023-05-04T08:47:29.342Z,99233.06
2023-05-04T08:49:59.395Z,99208.31
2023-05-04T08:52:27.654Z,99232.97
2023-05-04T08:54:56.239Z,99239.34
2023-05-04T08:57:24.962Z,99222.63
2023-05-04T08:59:56.404Z,99232.25
2023-05-04T09:02:24.872Z,99231.25
2023-05-04T09:04:52.947Z,99226.66
2023-05-04T09:07:21.679Z,99233.03
2023-05-04T09:09:51.981Z,99203.06
2023-05-04T09:12:19.553Z,99231.50
2023-05-04T09:14:46.899Z,99235.06
2023-05-04T09:17:18.059Z,99169.38
2023-05-04T09:19:45.160Z,99223.28
2023-05-04T09:22:20.768Z,99228.53
2023-05-04T09:24:47.974Z,99221.06
2023-05-04T09:27:18.543Z,99216.78
2023-05-04T09:29:54.059Z,99217.31
2023-05-04T09:32:21.323Z,99219.88
2023-05-04T09:34:52.583Z,99173.22
2023-05-04T09:37:21.247Z,99212.72
2023-05-04T09:40:00.651Z,99217.00
2023-05-04T09:42:28.902Z,99213.44
2023-05-04T09:45:04.169Z,99208.03
2023-05-04T09:47:33.692Z,99210.00
2023-05-04T09:50:22.582Z,99210.00
2023-05-04T09:52:50.817Z,99208.25
2023-05-04T09:55:21.149Z,99206.09
2023-05-04T09:57:50.592Z,99199.06
2023-05-04T10:00:18.921Z,99206.09
2023-05-04T10:02:47.525Z,99159.06
2023-05-04T10:05:18.837Z,99199.91
2023-05-04T10:07:46.688Z,99194.22
2023-05-04T10:10:15.468Z,99190.19
2023-05-04T10:12:44.986Z,99194.56
2023-05-04T10:15:13.276Z,99185.28
2023-05-04T10:18:01.881Z,99183.53
2023-05-04T10:20:57.376Z,99181.25
2023-05-04T10:23:44.460Z,99180.63
2023-05-04T10:26:47.952Z,99173.91
2023-05-04T10:29:35.340Z,99165.25
2023-05-04T10:32:02.859Z,99147.44
2023-05-04T10:34:31.902Z,99152.13
2023-05-04T10:37:00.871Z,99163.72
2023-05-04T10:39:33.499Z,99150.53
2023-05-04T10:42:04.742Z,99158.50
2023-05-04T10:44:33.436Z,99149.59
2023-05-04T10:47:09.363Z,99142.72
2023-05-04T10:49:36.336Z,99154.78
2023-05-04T10:52:21.128Z,99147.47
2023-05-04T10:55:03.984Z,99147.13
2023-05-04T10:57:31.595Z,99151.03
2023-05-04T10:59:59.368Z,99145.59
2023-05-04T11:02:29.729Z,99133.38
2023-05-04T11:05:06.058Z,99138.09
2023-05-04T11:07:40.150Z,99134.13
2023-05-04T11:10:09.900Z,99131.31
2023-05-04T11:12:38.199Z,99133.59
2023-05-04T11:15:14.104Z,99128.13
2023-05-04T11:17:48.964Z,99131.44
2023-05-04T11:20:23.983Z,99091.63
2023-05-04T11:22:51.175Z,99123.75
2023-05-04T11:25:26.984Z,99117.75
2023-05-04T11:27:54.281Z,99131.59
2023-05-04T11:30:22.291Z,99121.81
2023-05-04T11:32:54.245Z,99117.22
2023-05-04T11:35:25.222Z,99100.03
2023-05-04T11:37:53.053Z,99108.56
2023-05-04T11:40:22.650Z,99112.34
2023-05-04T11:42:52.889Z,99111.34
2023-05-04T11:45:23.202Z,99104.44
2023-05-04T11:47:51.528Z,99111.34
2023-05-04T11:50:20.862Z,99102.13
2023-05-04T11:52:48.632Z,99060.88
2023-05-04T11:55:31.565Z,99095.63
2023-05-04T11:58:09.647Z,99093.69
2023-05-04T12:00:46.595Z,99084.28
2023-05-04T12:03:17.328Z,99093.66
2023-05-04T12:05:48.903Z,99093.03
2023-05-04T12:08:31.727Z,99094.41
2023-05-04T12:11:25.394Z,99094.34
2023-05-04T12:14:07.068Z,99085.19
2023-05-04T12:16:34.292Z,99096.88
2023-05-04T12:19:06.810Z,99097.53
2023-05-04T12:21:35.346Z,99077.72
2023-05-04T12:24:03.512Z,99067.22
2023-05-04T12:26:30.799Z,99078.38
2023-05-04T12:28:57.725Z,99086.28
2023-05-04T12:31:25.563Z,99084.50
2023-05-04T12:33:52.851Z,99077.09
2023-05-04T12:36:19.926Z,99079.00
2023-05-04T12:38:46.858Z,99069.06
2023-05-04T12:41:14.130Z,99073.59
2023-05-04T12:43:41.315Z,99060.09
2023-05-04T12:46:08.420Z,99060.47
2023-05-04T12:48:35.374Z,99065.34
2023-05-04T12:51:04.420Z,99068.19
2023-05-04T12:53:32.318Z,99067.75
2023-05-04T12:56:00.182Z,99065.25
2023-05-04T12:58:27.851Z,99065.13
2023-05-04T13:00:56.762Z,99060.81
2023-05-04T13:03:24.301Z,99057.84
2023-05-04T13:05:51.479Z,99050.84
2023-05-04T13:08:19.935Z,99048.22
2023-05-04T13:10:47.479Z,99055.72
2023-05-04T13:13:17.357Z,99045.81
2023-05-04T13:15:45.189Z,99037.63
2023-05-04T13:18:13.153Z,99034.97
2023-05-04T13:20:41.582Z,99046.09
2023-05-04T13:23:08.495Z,99036.94
2023-05-04T13:25:35.374Z,99036.44
2023-05-04T13:28:02.434Z,99026.34
2023-05-04T13:30:29.898Z,99027.53
2023-05-04T13:32:56.935Z,99026.56
2023-05-04T13:35:24.190Z,99024.50
2023-05-04T13:37:51.734Z,99010.56
2023-05-04T13:40:18.786Z,99015.63
2023-05-04T13:42:45.709Z,98992.41
2023-05-04T13:45:13.436Z,98994.19
2023-05-04T13:47:40.977Z,98995.09
2023-05-04T13:50:08.853Z,98993.69
2023-05-04T13:52:36.595Z,98991.56
2023-05-04T13:55:04.176Z,98995.75
2023-05-04T13:57:31.407Z,98993.47
2023-05-04T14:00:07.108Z,98989.34
2023-05-04T14:02:35.344Z,98989.97
2023-05-04T14:05:04.247Z,98999.56
2023-05-04T14:07:31.541Z,98987.91
2023-05-04T14:09:59.263Z,98990.75
2023-05-04T14:12:26.494Z,98987.31
2023-05-04T14:14:53.570Z,98992.56
2023-05-04T14:18:08.171Z,98983.63
2023-05-04T14:20:35.404Z,98974.59
2023-05-04T14:23:02.363Z,98953.84
2023-05-04T14:25:29.476Z,98975.06
2023-05-04T14:27:56.497Z,98973.63
2023-05-04T14:30:23.952Z,98979.53
2023-05-04T14:32:55.685Z,98952.66
2023-05-04T14:35:22.735Z,98976.13
2023-05-04T14:37:49.867Z,98973.41
2023-05-04T14:40:17.011Z,98975.53
2023-05-04T14:42:43.945Z,98981.13
2023-05-04T14:45:11.405Z,98977.44
2023-05-04T14:47:38.431Z,98989.09
2023-05-04T14:50:06.672Z,98970.53
2023-05-04T14:52:33.847Z,98975.06
2023-05-04T14:55:00.881Z,98966.53
2023-05-04T14:57:27.865Z,98962.34
2023-05-04T14:59:55.468Z,98968.28
2023-05-04T15:02:22.699Z,98957.91
2023-05-04T15:04:49.843Z,98954.47
2023-05-04T15:07:19.027Z,98959.84
2023-05-04T15:09:46.143Z,98964.34
2023-05-04T15:12:13.107Z,98965.19
2023-05-04T15:14:40.014Z,98955.81
2023-05-04T15:17:08.317Z,98963.59
2023-05-04T15:19:39.777Z,98962.28
2023-05-04T15:22:07.646Z,98965.50
2023-05-04T15:24:34.572Z,98953.91
2023-05-04T15:27:02.299Z,98944.88
2023-05-04T15:29:29.537Z,98953.50
2023-05-04T15:31:56.729Z,98943.09
2023-05-04T15:34:23.804Z,98947.00
2023-05-04T15:36:50.890Z,98943.88
2023-05-04T15:39:17.809Z,98946.88
2023-05-04T15:41:44.831Z,98943.94
2023-05-04T15:44:11.787Z,98947.16
2023-05-04T15:46:38.871Z,98935.03
2023-05-04T15:49:05.846Z,98929.13
2023-05-04T15:51:32.870Z,98929.13
2023-05-04T15:53:59.959Z,98936.75
2023-05-04T15:56:30.998Z,98937.94
2023-05-04T15:58:57.945Z,98927.34
2023-05-04T16:01:24.932Z,98916.88
2023-05-04T16:03:55.658Z,98907.31
2023-05-04T16:06:23.677Z,98925.44
2023-05-04T16:08:50.953Z,98926.00
2023-05-04T16:11:18.053Z,98917.94
2023-05-04T16:13:45.080Z,98924.81
2023-05-04T16:16:12.093Z,98925.59
2023-05-04T16:18:39.061Z,98923.09
2023-05-04T16:21:06.191Z,98937.13
2023-05-04T16:23:33.146Z,98937.84
2023-05-04T16:26:00.020Z,98931.25
2023-05-04T16:28:29.912Z,98934.25
2023-05-04T16:30:58.879Z,98914.75
2023-05-04T16:33:27.762Z,98936.94
2023-05-04T16:35:54.839Z,98929.88
2023-05-04T16:38:21.901Z,98932.00
2023-05-04T16:40:48.976Z,98917.13
2023-05-04T16:43:16.435Z,98930.75
2023-05-04T16:45:43.400Z,98921.22
2023-05-04T16:48:10.325Z,98933.63
2023-05-04T16:50:37.309Z,98936.34
2023-05-04T16:53:04.275Z,98943.59
2023-05-04T16:55:31.776Z,98943.53
2023-05-04T16:57:58.885Z,98939.28
2023-05-04T17:00:26.211Z,98936.88
2023-05-04T17:02:53.407Z,98935.94
2023-05-04T17:05:21.333Z,98934.50
2023-05-04T17:07:48.399Z,98937.34
2023-05-04T17:10:15.585Z,98937.66
2023-05-04T17:12:42.771Z,98938.31
2023-05-04T17:15:11.267Z,98945.03
2023-05-04T17:17:38.279Z,98930.47
2023-05-04T17:20:06.582Z,98950.25
2023-05-04T17:22:33.755Z,98939.13
2023-05-04T17:25:00.726Z,98941.25
2023-05-04T17:27:27.675Z,98943.97
2023-05-04T17:29:54.591Z,98931.25
2023-05-04T17:32:21.591Z,98945.13
2023-05-04T17:34:48.578Z,98943.91
2023-05-04T17:37:15.515Z,98948.75
2023-05-04T17:39:42.415Z,98941.25
2023-05-04T17:42:10.930Z,98951.91
2023-05-04T17:44:37.904Z,98961.53
2023-05-04T17:47:04.988Z,98957.19
2023-05-04T17:49:32.014Z,98955.13
2023-05-04T17:51:59.863Z,98957.47
2023-05-04T17:54:26.956Z,98959.41
2023-05-04T17:56:54.120Z,98956.09
2023-05-04T17:59:23.497Z,98966.34
2023-05-04T18:01:50.474Z,98966.31
2023-05-04T18:04:17.411Z,98965.09
2023-05-04T18:06:44.361Z,98966.13
2023-05-04T18:09:11.880Z,98988.91
2023-05-04T18:11:38.808Z,98964.88
2023-05-04T18:14:05.690Z,98982.63
2023-05-04T18:16:36.233Z,98984.31
2023-05-04T18:19:03.871Z,98986.59
2023-05-04T18:21:30.793Z,98991.59
2023-05-04T18:23:57.715Z,98994.69
2023-05-04T18:26:24.655Z,98988.84
2023-05-04T18:28:51.590Z,98990.31
2023-05-04T18:31:19.240Z,98991.97
2023-05-04T18:33:46.359Z,99000.72
2023-05-04T18:36:13.401Z,98994.22
2023-05-04T18:38:41.196Z,99006.34
2023-05-04T18:41:10.882Z,99004.25
2023-05-04T18:43:37.804Z,99009.44
2023-05-04T18:46:08.166Z,99008.19
2023-05-04T18:48:35.236Z,99015.47
2023-05-04T18:51:02.952Z,99004.59
2023-05-04T19:11:55.854Z,99007.13
2023-05-04T19:14:23.315Z,99004.81
2023-05-04T19:16:50.325Z,99007.72
2023-05-04T19:19:17.850Z,99004.78
2023-05-04T19:21:44.830Z,99008.09
2023-05-04T19:24:11.766Z,99012.03
2023-05-04T19:26:39.409Z,98996.16
2023-05-04T19:29:06.333Z,99005.31
2023-05-04T19:31:33.416Z,98997.59
2023-05-04T19:34:01.095Z,98994.88
2023-05-04T19:36:28.059Z,98998.38
2023-05-04T19:38:55.004Z,98984.59
2023-05-04T19:41:22.285Z,98991.31
2023-05-04T19:43:49.245Z,98987.31
2023-05-04T19:46:16.254Z,98983.94
2023-05-04T19:52:11.327Z,98972.44
2023-05-04T19:54:41.315Z,98979.56
2023-05-04T19:57:08.456Z,98980.81
2023-05-04T19:59:35.816Z,98981.00
2023-05-04T20:02:02.991Z,98973.91
2023-05-04T20:04:29.960Z,98972.63
2023-05-04T20:06:56.985Z,98979.28
2023-05-04T20:09:23.922Z,98970.47
2023-05-04T20:11:51.029Z,98967.53
2023-05-04T20:14:18.052Z,98965.84
2023-05-04T20:16:45.178Z,98976.03
2023-05-04T20:19:12.186Z,98979.31
2023-05-04T20:21:39.111Z,98974.75
2023-05-04T20:24:06.333Z,98974.97
2023-05-04T20:26:33.262Z,98963.19
2023-05-04T20:29:00.160Z,98973.88
2023-05-04T20:31:27.237Z,98972.59
2023-05-04T20:33:54.205Z,98977.81
2023-05-04T20:36:21.119Z,98960.50
2023-05-04T20:38:48.083Z,98972.16
2023-05-04T20:41:14.980Z,98964.81
2023-05-04T20:43:41.959Z,98970.41
2023-05-04T20:46:08.972Z,98964.56
2023-05-04T20:48:35.976Z,98969.53
2023-05-04T20:51:13.931Z,98971.56
2023-05-04T20:53:42.427Z,98957.41
2023-05-04T20:56:09.399Z,98963.69
2023-05-04T20:58:36.388Z,98968.25
2023-05-04T21:01:04.202Z,98968.25
2023-05-04T21:03:31.598Z,98954.84
2023-05-04T21:05:59.186Z,98961.56
2023-05-04T21:08:27.002Z,98969.66
2023-05-04T21:10:53.988Z,98968.16
2023-05-04T21:13:21.081Z,98957.75
2023-05-04T21:15:48.232Z,98962.72
2023-05-04T21:18:15.555Z,98959.75
2023-05-04T21:20:42.691Z,98957.56
2023-05-04T21:23:09.682Z,98946.28
2023-05-04T21:25:36.625Z,98944.16
2023-05-04T21:28:03.886Z,98941.84
2023-05-04T21:30:30.850Z,98945.97
2023-05-04T21:32:57.848Z,98946.56
2023-05-04T21:35:24.851Z,98940.88
2023-05-04T21:37:52.050Z,98944.78
2023-05-04T21:40:19.042Z,98943.16
2023-05-04T21:42:45.957Z,98944.91
2023-05-04T21:45:12.848Z,98941.31
2023-05-04T21:47:40.070Z,98932.94
2023-05-04T21:50:07.923Z,98943.94
2023-05-04T21:52:35.019Z,98944.31
2023-05-04T21:55:01.976Z,98926.91
2023-05-04T21:57:32.835Z,98934.81
2023-05-04T22:00:00.194Z,98941.72
2023-05-04T22:02:27.109Z,98939.19
2023-05-04T22:04:54.053Z,98934.91
2023-05-04T22:07:20.984Z,98940.31
2023-05-04T22:09:47.975Z,98932.69
2023-05-04T22:12:15.280Z,98946.56
2023-05-04T22:14:42.636Z,98936.63
2023-05-04T22:17:09.723Z,98948.16
2023-05-04T22:19:36.652Z,98941.00
2023-05-04T22:22:03.622Z,98937.66
2023-05-04T22:24:30.640Z,98934.59
2023-05-04T22:26:57.617Z,98932.91
2023-05-04T22:29:24.710Z,98925.94
2023-05-04T22:31:51.617Z,98930.22
2023-05-04T22:34:18.550Z,98923.53
2023-05-04T22:36:45.507Z,98930.59
2023-05-04T22:39:12.532Z,98930.59
2023-05-04T22:41:39.505Z,98936.81
2023-05-04T22:44:07.550Z,98940.28
2023-05-04T22:46:34.604Z,98932.63
2023-05-04T22:49:01.967Z,98927.50
2023-05-04T22:51:29.000Z,98927.97
2023-05-04T22:53:56.031Z,98926.53
2023-05-04T22:56:23.009Z,98924.00
2023-05-04T22:58:49.876Z,98919.66
2023-05-04T23:01:18.377Z,98927.78
2023-05-04T23:03:45.532Z,98926.19
2023-05-04T23:06:12.502Z,98928.25
2023-05-04T23:08:39.425Z,98933.16
2023-05-04T23:11:06.378Z,98931.19
2023-05-04T23:13:34.360Z,98925.78
2023-05-04T23:16:01.352Z,98925.13
2023-05-04T23:18:28.366Z,98933.88
2023-05-04T23:20:55.331Z,98931.34
2023-05-04T23:23:22.481Z,98932.09
2023-05-04T23:25:49.369Z,98932.09
2023-05-04T23:28:16.565Z,98927.03
2023-05-04T23:30:43.460Z,98924.53
2023-05-04T23:33:10.393Z,98929.25
2023-05-04T23:35:37.286Z,98919.50
2023-05-04T23:38:04.444Z,98920.78
2023-05-04T23:40:31.874Z,98910.00
2023-05-04T23:42:58.751Z,98913.41
2023-05-04T23:45:25.722Z,98916.66
2023-05-04T23:47:53.419Z,98915.63
2023-05-04T23:50:20.409Z,98923.53
2023-05-04T23:52:47.378Z,98911.44
2023-05-04T23:55:14.659Z,98916.13
2023-05-04T23:57:44.232Z,98904.66
